Time;durP1;ratioP1;P1;durP2;ratioP2;P2;SDS_P1;SDS_P2;PMS_P1;PMS_P2;Temp;Humidity;BMP_temperature;BMP_pressure;BME280_temperature;BME280_humidity;BME280_pressure;Samples;Min_cycle;Max_cycle;Signal;HPM_P1;HPM_P2
2021/11/27 09:25:53;;;;;;;17.63;11.13;;;5.70;99.90;;;;;;5080596;27;20350;-76
2021/11/27 09:28:19;;;;;;;20.97;12.63;;;5.60;99.90;;;;;;5064755;28;20283;-78
2021/11/27 09:30:44;;;;;;;20.23;13.03;;;5.60;99.90;;;;;;5065937;28;20094;-77
2021/11/27 09:33:10;;;;;;;16.30;11.10;;;5.70;99.90;;;;;;5048349;28;20045;-78
2021/11/27 09:35:36;;;;;;;18.07;11.97;;;5.80;99.90;;;;;;5047436;28;20040;-79
2021/11/27 09:38:02;;;;;;;18.00;11.93;;;5.80;99.90;;;;;;5048378;28;20083;-79
2021/11/27 09:40:36;;;;;;;18.07;12.43;;;5.90;99.90;;;;;;5047456;28;20041;-79
2021/11/27 09:43:02;;;;;;;13.63;10.90;;;5.90;99.90;;;;;;5047310;28;20041;-78
2021/11/27 09:45:28;;;;;;;16.97;12.00;;;6.00;99.90;;;;;;5047702;28;20368;-80
2021/11/27 09:47:55;;;;;;;19.13;13.87;;;6.00;99.90;;;;;;5066092;28;20045;-79
2021/11/27 09:50:22;;;;;;;16.47;10.90;;;6.10;99.90;;;;;;5047038;28;20044;-80
2021/11/27 09:52:48;;;;;;;12.70;9.60;;;6.20;99.90;;;;;;5048084;28;20347;-80
2021/11/27 09:55:18;;;;;;;15.57;12.90;;;6.20;99.90;;;;;;5046102;28;20037;-78
2021/11/27 09:57:45;;;;;;;14.83;10.50;;;6.30;99.90;;;;;;5047123;28;20045;-78
2021/11/27 10:00:12;;;;;;;13.23;9.37;;;6.40;99.90;;;;;;5065440;28;20332;-78
2021/11/27 10:02:41;;;;;;;13.63;10.30;;;6.40;99.90;;;;;;5064212;28;20987;-78
2021/11/27 10:05:09;;;;;;;14.23;9.90;;;6.30;99.90;;;;;;5064905;28;20390;-78
2021/11/27 10:07:37;;;;;;;13.97;9.33;;;6.40;99.90;;;;;;5064326;28;20489;-78
2021/11/27 10:10:04;;;;;;;14.77;10.33;;;6.40;99.90;;;;;;5045649;28;20052;-78
2021/11/27 10:12:30;;;;;;;12.93;10.40;;;6.40;99.90;;;;;;5047140;28;20044;-78
2021/11/27 10:14:55;;;;;;;12.70;9.80;;;6.50;99.90;;;;;;5047167;28;20044;-78
2021/11/27 10:17:22;;;;;;;14.27;9.87;;;6.40;99.90;;;;;;5064243;28;20048;-79
2021/11/27 10:19:59;;;;;;;12.67;9.93;;;6.40;99.90;;;;;;5046530;28;20455;-78
2021/11/27 10:22:37;;;;;;;14.63;10.47;;;6.40;99.90;;;;;;5047280;28;20049;-78
2021/11/27 11:32:15;;;;;;;6.87;5.40;;;6.10;99.90;;;;;;5121778;27;20357;-75
2021/11/27 11:34:41;;;;;;;7.50;6.60;;;6.10;99.90;;;;;;5125329;28;20288;-79
2021/11/27 11:37:09;;;;;;;7.07;6.37;;;6.00;99.90;;;;;;5126206;28;20610;-74
2021/11/27 11:39:37;;;;;;;8.47;7.57;;;6.00;99.90;;;;;;5125994;28;20335;-75
2021/11/27 11:42:03;;;;;;;8.10;7.07;;;6.00;99.90;;;;;;5125004;27;20296;-74
2021/11/27 11:44:29;;;;;;;8.43;7.43;;;6.00;99.90;;;;;;5125323;28;20301;-76
2021/11/27 11:46:55;;;;;;;8.27;6.90;;;6.00;99.90;;;;;;5126742;28;20048;-73
2021/11/27 11:49:21;;;;;;;8.60;7.73;;;6.00;99.90;;;;;;5124210;28;20289;-74
2021/11/27 11:52:08;;;;;;;9.30;7.37;;;6.10;99.90;;;;;;5126567;28;20304;-75
2021/11/27 11:54:35;;;;;;;8.20;7.40;;;6.10;99.90;;;;;;5125157;27;20044;-73
2021/11/27 11:57:02;;;;;;;6.97;6.20;;;6.10;99.90;;;;;;5126134;28;20281;-74
2021/11/27 11:59:32;;;;;;;9.27;7.20;;;6.10;99.90;;;;;;5125407;28;20437;-74
2021/11/27 12:02:14;;;;;;;10.27;7.73;;;6.10;99.90;;;;;;5125236;28;20716;-72
2021/11/27 12:04:58;;;;;;;7.07;6.40;;;6.10;99.90;;;;;;5125029;28;20097;-75
2021/11/27 12:07:52;;;;;;;9.77;7.63;;;6.10;99.90;;;;;;5126233;28;20170;-74
2021/11/27 12:10:26;;;;;;;8.33;7.50;;;6.20;99.90;;;;;;5124658;27;20388;-74
2021/11/27 12:13:07;;;;;;;9.40;8.53;;;6.20;99.90;;;;;;5124789;28;20305;-75
2021/11/27 12:15:46;;;;;;;9.30;6.40;;;6.30;99.90;;;;;;5125456;28;20550;-73
2021/11/27 12:25:37;;;;;;;7.00;6.30;;;6.20;99.90;;;;;;5120703;27;20410;-82
2021/11/27 12:28:02;;;;;;;7.33;6.73;;;6.30;99.90;;;;;;5109445;28;20300;-82
2021/11/27 12:30:54;;;;;;;7.57;5.77;;;6.20;99.90;;;;;;5107329;28;20403;-83
2021/11/27 12:33:45;;;;;;;10.35;9.48;;;6.30;99.90;;;;;;5108862;28;20067;-81
2021/11/27 12:36:26;;;;;;;6.07;5.47;;;6.30;99.90;;;;;;5110509;28;20087;-80
2021/11/27 12:39:11;;;;;;;6.10;5.17;;;6.30;99.90;;;;;;5108653;28;20295;-79
2021/11/27 12:41:41;;;;;;;5.60;4.87;;;6.30;99.90;;;;;;5109558;28;20055;-80
2021/11/27 12:44:19;;;;;;;5.90;5.30;;;6.20;99.90;;;;;;5108112;28;20368;-80
2021/11/27 12:46:53;;;;;;;6.23;5.23;;;6.20;99.90;;;;;;5107824;28;20664;-76
2021/11/27 12:49:34;;;;;;;8.37;6.57;;;6.30;99.90;;;;;;5108629;27;20297;-78
2021/11/27 12:52:11;;;;;;;5.67;3.40;;;6.20;99.90;;;;;;5107989;28;20884;-77
2021/11/27 12:54:38;;;;;;;3.53;2.90;;;6.20;99.90;;;;;;5108609;28;20468;-81
2021/11/27 12:57:03;;;;;;;9.33;2.90;;;6.20;99.90;;;;;;5108348;28;20293;-78
